KRIL/RIL METAR and TAF weather

Enter ICAO airport designator
Station Type Date Time Source
KRIL METAR 2023/01/30 10:10 UTC NOAA

KRIL 301010Z AUTO 28004KT 4SM -SN BR OVC007 M02/M03 A2983 RMK AO2 P0000 T10221033


Station Type Date Time Source
KRIL Decoded METAR 2023/01/30 10:10 UTC NOAA

RIFLE GARFIELD COUNTY RGNL, CO, United States (KRIL) 39-31N 107-44W 1678M
Jan 30, 2023 - 05:10 AM EST / 2023.01.30 1010 UTC
Wind: from the W (280 degrees) at 5 MPH (4 KT):0
Visibility: 4 mile(s):0
Sky conditions: overcast
Weather: light snow; mist
Precipitation last hour: A trace
Temperature: 28.0 F (-2.2 C)
Windchill: 23 F (-5 C):1
Dew Point: 26.1 F (-3.3 C)
Relative Humidity: 92%
Pressure (altimeter): 29.83 in. Hg (1010 hPa)
ob: KRIL 301010Z AUTO 28004KT 4SM -SN BR OVC007 M02/M03 A2983 RMK AO2 P0000 T10221033
cycle: 10

Station Type Date Time Source
KRIL TAF 2023/01/30 09:10 UTC NOAA

TAF
AMD KRIL 300908Z 3009/3106 VRB04KT 5SM -SN BR OVC040
TEMPO 3009/3012 2SM -SN BR BKN005 OVC035
FM301200 30010KT 3SM -SHSN BR OVC020
FM301800 31008G15KT 2SM -SHSN BR OVC015
FM310000 30010G15KT P6SM OVC020

Example: see airport list